sensor_id;sensor_type;location;lat;lon;timestamp;temperature;humidity
60293;DHT22;52402;52.670;6.750;2023-07-22T00:01:12;12.50;99.90
60293;DHT22;52402;52.670;6.750;2023-07-22T00:03:49;12.40;99.90
60293;DHT22;52402;52.670;6.750;2023-07-22T00:06:18;12.40;99.90
60293;DHT22;52402;52.670;6.750;2023-07-22T00:08:46;12.40;99.90
60293;DHT22;52402;52.670;6.750;2023-07-22T00:11:20;12.40;99.90
60293;DHT22;52402;52.670;6.750;2023-07-22T00:13:49;12.30;99.90
60293;DHT22;52402;52.670;6.750;2023-07-22T00:16:17;12.30;99.90
60293;DHT22;52402;52.670;6.750;2023-07-22T00:18:43;12.30;99.90
60293;DHT22;52402;52.670;6.750;2023-07-22T00:21:08;12.30;99.90
60293;DHT22;52402;52.670;6.750;2023-07-22T00:23:37;12.30;99.90
60293;DHT22;52402;52.670;6.750;2023-07-22T00:26:05;12.30;99.90
60293;DHT22;52402;52.670;6.750;2023-07-22T00:28:38;12.30;99.90
60293;DHT22;52402;52.670;6.750;2023-07-22T00:31:11;12.30;99.90
60293;DHT22;52402;52.670;6.750;2023-07-22T00:33:37;12.30;99.90
60293;DHT22;52402;52.670;6.750;2023-07-22T00:36:04;12.30;99.90
60293;DHT22;52402;52.670;6.750;2023-07-22T00:38:29;12.30;99.90
60293;DHT22;52402;52.670;6.750;2023-07-22T00:40:55;12.30;99.90
60293;DHT22;52402;52.670;6.750;2023-07-22T00:43:23;12.20;99.90
60293;DHT22;52402;52.670;6.750;2023-07-22T00:45:54;12.30;99.90
60293;DHT22;52402;52.670;6.750;2023-07-22T00:48:20;12.30;99.90
60293;DHT22;52402;52.670;6.750;2023-07-22T00:50:48;12.20;99.90
60293;DHT22;52402;52.670;6.750;2023-07-22T00:53:14;12.20;99.90
60293;DHT22;52402;52.670;6.750;2023-07-22T00:55:40;12.20;99.90
60293;DHT22;52402;52.670;6.750;2023-07-22T00:58:06;12.20;99.90
60293;DHT22;52402;52.670;6.750;2023-07-22T01:00:32;12.20;99.90
60293;DHT22;52402;52.670;6.750;2023-07-22T01:02:58;12.20;99.90
60293;DHT22;52402;52.670;6.750;2023-07-22T01:05:26;12.20;99.90
60293;DHT22;52402;52.670;6.750;2023-07-22T01:07:54;12.20;99.90
60293;DHT22;52402;52.670;6.750;2023-07-22T01:10:21;12.10;99.90
60293;DHT22;52402;52.670;6.750;2023-07-22T01:12:47;12.10;99.90
60293;DHT22;52402;52.670;6.750;2023-07-22T01:15:13;12.10;99.90
60293;DHT22;52402;52.670;6.750;2023-07-22T01:17:39;12.10;99.90
60293;DHT22;52402;52.670;6.750;2023-07-22T01:20:06;12.10;99.90
60293;DHT22;52402;52.670;6.750;2023-07-22T01:22:33;12.10;99.90
60293;DHT22;52402;52.670;6.750;2023-07-22T01:25:00;12.10;99.90
60293;DHT22;52402;52.670;6.750;2023-07-22T01:27:26;12.00;99.90
60293;DHT22;52402;52.670;6.750;2023-07-22T01:29:52;12.10;99.90
60293;DHT22;52402;52.670;6.750;2023-07-22T01:32:20;12.10;99.90
60293;DHT22;52402;52.670;6.750;2023-07-22T01:34:46;12.10;99.90
60293;DHT22;52402;52.670;6.750;2023-07-22T01:37:12;12.10;99.90
60293;DHT22;52402;52.670;6.750;2023-07-22T01:39:40;12.10;99.90
60293;DHT22;52402;52.670;6.750;2023-07-22T01:42:07;12.20;99.90
60293;DHT22;52402;52.670;6.750;2023-07-22T01:44:35;12.20;99.90
60293;DHT22;52402;52.670;6.750;2023-07-22T01:47:26;12.30;99.90
60293;DHT22;52402;52.670;6.750;2023-07-22T01:49:57;12.30;99.90
60293;DHT22;52402;52.670;6.750;2023-07-22T01:52:41;12.30;99.90
60293;DHT22;52402;52.670;6.750;2023-07-22T01:58:20;12.30;99.90
60293;DHT22;52402;52.670;6.750;2023-07-22T02:00:53;12.30;99.90
60293;DHT22;52402;52.670;6.750;2023-07-22T02:03:19;12.30;99.90
60293;DHT22;52402;52.670;6.750;2023-07-22T02:05:48;12.30;99.90
60293;DHT22;52402;52.670;6.750;2023-07-22T02:08:16;12.30;99.90
60293;DHT22;52402;52.670;6.750;2023-07-22T02:10:42;12.30;99.90
60293;DHT22;52402;52.670;6.750;2023-07-22T02:13:09;12.40;99.90
60293;DHT22;52402;52.670;6.750;2023-07-22T02:15:37;12.30;99.90
60293;DHT22;52402;52.670;6.750;2023-07-22T02:18:03;12.30;99.90
60293;DHT22;52402;52.670;6.750;2023-07-22T02:20:31;12.40;99.90
60293;DHT22;52402;52.670;6.750;2023-07-22T02:22:57;12.40;99.90
60293;DHT22;52402;52.670;6.750;2023-07-22T02:25:37;12.40;99.90
60293;DHT22;52402;52.670;6.750;2023-07-22T02:28:03;12.40;99.90
60293;DHT22;52402;52.670;6.750;2023-07-22T02:30:29;12.40;99.90
60293;DHT22;52402;52.670;6.750;2023-07-22T02:32:55;12.40;99.90
60293;DHT22;52402;52.670;6.750;2023-07-22T02:35:21;12.40;99.90
60293;DHT22;52402;52.670;6.750;2023-07-22T02:38:05;12.40;99.90
60293;DHT22;52402;52.670;6.750;2023-07-22T02:40:37;12.40;99.90
60293;DHT22;52402;52.670;6.750;2023-07-22T02:43:09;12.40;99.90
60293;DHT22;52402;52.670;6.750;2023-07-22T02:45:35;12.50;99.90
60293;DHT22;52402;52.670;6.750;2023-07-22T02:48:01;12.50;99.90
60293;DHT22;52402;52.670;6.750;2023-07-22T02:50:27;12.50;99.90
60293;DHT22;52402;52.670;6.750;2023-07-22T02:52:53;12.50;99.90
60293;DHT22;52402;52.670;6.750;2023-07-22T02:55:21;12.50;99.90
60293;DHT22;52402;52.670;6.750;2023-07-22T02:58:06;12.50;99.90
60293;DHT22;52402;52.670;6.750;2023-07-22T03:00:34;12.60;99.90
60293;DHT22;52402;52.670;6.750;2023-07-22T03:03:03;12.60;99.90
60293;DHT22;52402;52.670;6.750;2023-07-22T03:05:35;12.60;99.90
60293;DHT22;52402;52.670;6.750;2023-07-22T03:08:07;12.60;99.90
60293;DHT22;52402;52.670;6.750;2023-07-22T03:10:44;12.70;99.90
60293;DHT22;52402;52.670;6.750;2023-07-22T03:13:38;12.70;99.90
60293;DHT22;52402;52.670;6.750;2023-07-22T03:16:04;12.70;99.90
60293;DHT22;52402;52.670;6.750;2023-07-22T03:18:38;12.70;99.90
60293;DHT22;52402;52.670;6.750;2023-07-22T03:21:16;12.70;99.90
60293;DHT22;52402;52.670;6.750;2023-07-22T03:23:46;12.70;99.90
60293;DHT22;52402;52.670;6.750;2023-07-22T03:26:12;12.70;99.90
60293;DHT22;52402;52.670;6.750;2023-07-22T03:28:41;12.70;99.90
60293;DHT22;52402;52.670;6.750;2023-07-22T03:31:09;12.70;99.90
60293;DHT22;52402;52.670;6.750;2023-07-22T03:33:35;12.80;99.90
60293;DHT22;52402;52.670;6.750;2023-07-22T03:36:01;12.80;99.90
60293;DHT22;52402;52.670;6.750;2023-07-22T03:38:29;12.80;99.90
60293;DHT22;52402;52.670;6.750;2023-07-22T03:40:56;12.80;99.90
60293;DHT22;52402;52.670;6.750;2023-07-22T03:43:22;12.90;99.90
60293;DHT22;52402;52.670;6.750;2023-07-22T03:45:47;12.90;99.90
60293;DHT22;52402;52.670;6.750;2023-07-22T03:48:16;12.90;99.90
60293;DHT22;52402;52.670;6.750;2023-07-22T03:50:41;12.90;99.90
60293;DHT22;52402;52.670;6.750;2023-07-22T03:53:07;13.00;99.90
60293;DHT22;52402;52.670;6.750;2023-07-22T03:55:32;12.90;99.90
60293;DHT22;52402;52.670;6.750;2023-07-22T03:57:58;13.00;99.90
60293;DHT22;52402;52.670;6.750;2023-07-22T04:00:24;13.00;99.90
60293;DHT22;52402;52.670;6.750;2023-07-22T04:02:49;13.00;99.90
60293;DHT22;52402;52.670;6.750;2023-07-22T04:05:15;13.00;99.90
60293;DHT22;52402;52.670;6.750;2023-07-22T04:07:41;13.00;99.90
60293;DHT22;52402;52.670;6.750;2023-07-22T04:10:07;13.00;99.90
60293;DHT22;52402;52.670;6.750;2023-07-22T04:12:33;13.10;99.90
60293;DHT22;52402;52.670;6.750;2023-07-22T04:15:01;13.10;99.90
60293;DHT22;52402;52.670;6.750;2023-07-22T04:17:29;13.00;99.90
60293;DHT22;52402;52.670;6.750;2023-07-22T04:20:12;13.10;99.90
60293;DHT22;52402;52.670;6.750;2023-07-22T04:23:08;13.10;99.90
60293;DHT22;52402;52.670;6.750;2023-07-22T04:25:57;13.20;99.90
60293;DHT22;52402;52.670;6.750;2023-07-22T04:28:40;13.20;99.90
60293;DHT22;52402;52.670;6.750;2023-07-22T04:31:12;13.20;99.90
60293;DHT22;52402;52.670;6.750;2023-07-22T04:34:19;13.20;99.90
60293;DHT22;52402;52.670;6.750;2023-07-22T04:36:44;13.30;99.90
60293;DHT22;52402;52.670;6.750;2023-07-22T04:39:12;13.30;99.90
60293;DHT22;52402;52.670;6.750;2023-07-22T04:41:38;13.30;99.90
60293;DHT22;52402;52.670;6.750;2023-07-22T04:44:04;13.30;99.90
60293;DHT22;52402;52.670;6.750;2023-07-22T04:46:32;13.30;99.90
60293;DHT22;52402;52.670;6.750;2023-07-22T04:48:58;13.40;99.90
60293;DHT22;52402;52.670;6.750;2023-07-22T04:51:26;13.40;99.90
60293;DHT22;52402;52.670;6.750;2023-07-22T04:53:59;13.40;99.90
60293;DHT22;52402;52.670;6.750;2023-07-22T04:56:25;13.40;99.90
60293;DHT22;52402;52.670;6.750;2023-07-22T04:58:59;13.40;99.90
60293;DHT22;52402;52.670;6.750;2023-07-22T05:01:25;13.50;99.90
60293;DHT22;52402;52.670;6.750;2023-07-22T05:03:54;13.50;99.90
60293;DHT22;52402;52.670;6.750;2023-07-22T05:06:21;13.50;99.90
60293;DHT22;52402;52.670;6.750;2023-07-22T05:08:46;13.50;99.90
60293;DHT22;52402;52.670;6.750;2023-07-22T05:11:12;13.50;99.90
60293;DHT22;52402;52.670;6.750;2023-07-22T05:13:38;13.50;99.90
60293;DHT22;52402;52.670;6.750;2023-07-22T05:16:04;13.50;99.90
60293;DHT22;52402;52.670;6.750;2023-07-22T05:18:29;13.50;99.90
60293;DHT22;52402;52.670;6.750;2023-07-22T05:20:55;13.50;99.90
60293;DHT22;52402;52.670;6.750;2023-07-22T05:23:23;13.50;99.90
60293;DHT22;52402;52.670;6.750;2023-07-22T05:25:53;13.50;99.90
60293;DHT22;52402;52.670;6.750;2023-07-22T05:28:21;13.50;99.90
60293;DHT22;52402;52.670;6.750;2023-07-22T05:30:49;13.50;99.90
60293;DHT22;52402;52.670;6.750;2023-07-22T05:33:45;13.50;99.90
60293;DHT22;52402;52.670;6.750;2023-07-22T05:36:30;13.50;99.90
60293;DHT22;52402;52.670;6.750;2023-07-22T05:39:26;13.60;99.90
60293;DHT22;52402;52.670;6.750;2023-07-22T05:41:52;13.60;99.90
60293;DHT22;52402;52.670;6.750;2023-07-22T05:44:21;13.70;99.90
60293;DHT22;52402;52.670;6.750;2023-07-22T05:46:57;13.70;99.90
60293;DHT22;52402;52.670;6.750;2023-07-22T05:49:41;13.80;99.90
60293;DHT22;52402;52.670;6.750;2023-07-22T05:52:09;13.80;99.90
60293;DHT22;52402;52.670;6.750;2023-07-22T05:54:37;13.90;99.90
60293;DHT22;52402;52.670;6.750;2023-07-22T05:57:11;14.00;99.90
60293;DHT22;52402;52.670;6.750;2023-07-22T05:59:59;14.10;99.90
60293;DHT22;52402;52.670;6.750;2023-07-22T06:02:25;14.10;99.90
60293;DHT22;52402;52.670;6.750;2023-07-22T06:05:00;14.30;99.90
60293;DHT22;52402;52.670;6.750;2023-07-22T06:07:42;14.30;99.90
60293;DHT22;52402;52.670;6.750;2023-07-22T06:10:28;14.50;99.90
60293;DHT22;52402;52.670;6.750;2023-07-22T06:13:03;14.60;99.90
60293;DHT22;52402;52.670;6.750;2023-07-22T06:15:28;14.70;99.90
60293;DHT22;52402;52.670;6.750;2023-07-22T06:17:54;14.80;99.90
60293;DHT22;52402;52.670;6.750;2023-07-22T06:20:20;14.80;99.90
60293;DHT22;52402;52.670;6.750;2023-07-22T06:22:45;14.80;99.90
60293;DHT22;52402;52.670;6.750;2023-07-22T06:25:11;14.90;99.90
60293;DHT22;52402;52.670;6.750;2023-07-22T06:27:37;14.90;99.90
60293;DHT22;52402;52.670;6.750;2023-07-22T06:30:03;14.90;99.90
60293;DHT22;52402;52.670;6.750;2023-07-22T06:32:33;14.90;99.90
60293;DHT22;52402;52.670;6.750;2023-07-22T06:34:59;14.80;99.90
60293;DHT22;52402;52.670;6.750;2023-07-22T06:37:31;14.80;99.90
60293;DHT22;52402;52.670;6.750;2023-07-22T06:39:57;14.80;99.90
60293;DHT22;52402;52.670;6.750;2023-07-22T06:42:22;14.80;99.90
60293;DHT22;52402;52.670;6.750;2023-07-22T06:44:48;14.70;99.90
60293;DHT22;52402;52.670;6.750;2023-07-22T06:47:14;14.80;99.90
60293;DHT22;52402;52.670;6.750;2023-07-22T06:49:42;14.70;99.90
60293;DHT22;52402;52.670;6.750;2023-07-22T06:52:07;14.80;99.90
60293;DHT22;52402;52.670;6.750;2023-07-22T06:54:33;14.80;99.90
60293;DHT22;52402;52.670;6.750;2023-07-22T06:56:59;14.80;99.90
60293;DHT22;52402;52.670;6.750;2023-07-22T06:59:25;14.90;99.90
60293;DHT22;52402;52.670;6.750;2023-07-22T07:01:52;15.00;99.90
60293;DHT22;52402;52.670;6.750;2023-07-22T07:04:17;15.10;99.90
60293;DHT22;52402;52.670;6.750;2023-07-22T07:06:43;15.20;99.90
60293;DHT22;52402;52.670;6.750;2023-07-22T07:09:09;15.30;99.90
60293;DHT22;52402;52.670;6.750;2023-07-22T07:11:35;15.50;99.90
60293;DHT22;52402;52.670;6.750;2023-07-22T07:14:01;15.60;99.90
60293;DHT22;52402;52.670;6.750;2023-07-22T07:16:28;15.70;99.90
60293;DHT22;52402;52.670;6.750;2023-07-22T07:18:55;15.80;99.90
60293;DHT22;52402;52.670;6.750;2023-07-22T07:21:21;16.00;99.90
60293;DHT22;52402;52.670;6.750;2023-07-22T07:23:48;16.10;99.90
60293;DHT22;52402;52.670;6.750;2023-07-22T07:26:14;16.30;99.90
60293;DHT22;52402;52.670;6.750;2023-07-22T07:28:40;16.30;99.90
60293;DHT22;52402;52.670;6.750;2023-07-22T07:31:06;16.40;99.90
60293;DHT22;52402;52.670;6.750;2023-07-22T07:33:33;16.50;99.90
60293;DHT22;52402;52.670;6.750;2023-07-22T07:35:59;16.60;99.90
60293;DHT22;52402;52.670;6.750;2023-07-22T07:38:24;16.60;99.90
60293;DHT22;52402;52.670;6.750;2023-07-22T07:40:56;16.70;99.90
60293;DHT22;52402;52.670;6.750;2023-07-22T07:43:21;16.70;99.90
60293;DHT22;52402;52.670;6.750;2023-07-22T07:45:47;16.70;99.90
60293;DHT22;52402;52.670;6.750;2023-07-22T07:48:13;16.80;99.90
60293;DHT22;52402;52.670;6.750;2023-07-22T07:50:38;16.80;99.90
60293;DHT22;52402;52.670;6.750;2023-07-22T07:53:04;17.00;99.90
60293;DHT22;52402;52.670;6.750;2023-07-22T07:55:30;17.10;99.90
60293;DHT22;52402;52.670;6.750;2023-07-22T07:57:55;17.20;99.90
60293;DHT22;52402;52.670;6.750;2023-07-22T08:00:21;17.20;99.90
60293;DHT22;52402;52.670;6.750;2023-07-22T08:02:47;17.40;99.90
60293;DHT22;52402;52.670;6.750;2023-07-22T08:05:12;17.60;99.90
60293;DHT22;52402;52.670;6.750;2023-07-22T08:07:38;17.80;99.90
60293;DHT22;52402;52.670;6.750;2023-07-22T08:10:05;17.90;99.90
60293;DHT22;52402;52.670;6.750;2023-07-22T08:12:33;18.00;99.90
60293;DHT22;52402;52.670;6.750;2023-07-22T08:14:59;18.10;99.90
60293;DHT22;52402;52.670;6.750;2023-07-22T08:17:25;18.10;99.90
60293;DHT22;52402;52.670;6.750;2023-07-22T08:19:51;18.10;99.90
60293;DHT22;52402;52.670;6.750;2023-07-22T08:22:17;18.30;99.90
60293;DHT22;52402;52.670;6.750;2023-07-22T08:24:43;18.50;99.90
60293;DHT22;52402;52.670;6.750;2023-07-22T08:27:09;18.40;99.90
60293;DHT22;52402;52.670;6.750;2023-07-22T08:29:35;18.50;99.90
60293;DHT22;52402;52.670;6.750;2023-07-22T08:32:00;18.70;99.90
60293;DHT22;52402;52.670;6.750;2023-07-22T08:34:26;18.60;99.90
60293;DHT22;52402;52.670;6.750;2023-07-22T08:36:52;18.70;99.90
60293;DHT22;52402;52.670;6.750;2023-07-22T08:39:21;18.80;99.90
60293;DHT22;52402;52.670;6.750;2023-07-22T08:41:49;18.90;99.90
60293;DHT22;52402;52.670;6.750;2023-07-22T08:44:19;19.00;99.90
60293;DHT22;52402;52.670;6.750;2023-07-22T08:46:46;19.20;99.90
60293;DHT22;52402;52.670;6.750;2023-07-22T08:49:13;19.30;99.90
60293;DHT22;52402;52.670;6.750;2023-07-22T08:51:40;19.40;99.90
60293;DHT22;52402;52.670;6.750;2023-07-22T08:54:06;19.60;99.90
60293;DHT22;52402;52.670;6.750;2023-07-22T08:56:36;19.60;99.90
60293;DHT22;52402;52.670;6.750;2023-07-22T08:59:02;19.70;99.90
60293;DHT22;52402;52.670;6.750;2023-07-22T09:01:28;19.70;99.90
60293;DHT22;52402;52.670;6.750;2023-07-22T09:03:55;19.70;99.90
60293;DHT22;52402;52.670;6.750;2023-07-22T09:06:23;19.60;99.90
60293;DHT22;52402;52.670;6.750;2023-07-22T09:08:49;19.60;99.90
60293;DHT22;52402;52.670;6.750;2023-07-22T09:11:15;19.50;99.90
60293;DHT22;52402;52.670;6.750;2023-07-22T09:13:44;19.50;99.90
60293;DHT22;52402;52.670;6.750;2023-07-22T09:16:11;19.50;99.90
60293;DHT22;52402;52.670;6.750;2023-07-22T09:18:38;19.50;99.90
60293;DHT22;52402;52.670;6.750;2023-07-22T09:21:05;19.40;99.90
60293;DHT22;52402;52.670;6.750;2023-07-22T09:23:38;19.20;99.90
60293;DHT22;52402;52.670;6.750;2023-07-22T09:26:14;19.10;99.90
60293;DHT22;52402;52.670;6.750;2023-07-22T09:28:57;19.00;99.90
60293;DHT22;52402;52.670;6.750;2023-07-22T09:31:26;18.90;99.90
60293;DHT22;52402;52.670;6.750;2023-07-22T09:33:54;18.70;99.90
60293;DHT22;52402;52.670;6.750;2023-07-22T09:36:20;18.50;99.90
60293;DHT22;52402;52.670;6.750;2023-07-22T09:38:59;18.50;99.90
60293;DHT22;52402;52.670;6.750;2023-07-22T09:41:28;18.60;99.90
60293;DHT22;52402;52.670;6.750;2023-07-22T09:43:56;18.70;99.90
60293;DHT22;52402;52.670;6.750;2023-07-22T09:46:31;18.90;99.90
60293;DHT22;52402;52.670;6.750;2023-07-22T09:49:03;19.00;99.90
60293;DHT22;52402;52.670;6.750;2023-07-22T09:51:35;19.10;99.90
60293;DHT22;52402;52.670;6.750;2023-07-22T09:54:03;19.10;99.90
60293;DHT22;52402;52.670;6.750;2023-07-22T09:56:31;19.10;99.90
60293;DHT22;52402;52.670;6.750;2023-07-22T09:58:59;19.10;99.90
60293;DHT22;52402;52.670;6.750;2023-07-22T10:01:25;19.00;99.90
60293;DHT22;52402;52.670;6.750;2023-07-22T10:03:54;19.10;99.90
60293;DHT22;52402;52.670;6.750;2023-07-22T10:06:33;19.00;99.90
60293;DHT22;52402;52.670;6.750;2023-07-22T10:09:04;18.80;99.90
60293;DHT22;52402;52.670;6.750;2023-07-22T10:11:34;18.60;99.90
60293;DHT22;52402;52.670;6.750;2023-07-22T10:14:09;18.50;99.90
60293;DHT22;52402;52.670;6.750;2023-07-22T10:16:59;18.40;99.90
60293;DHT22;52402;52.670;6.750;2023-07-22T10:19:31;18.30;99.90
60293;DHT22;52402;52.670;6.750;2023-07-22T10:22:00;18.20;99.90
60293;DHT22;52402;52.670;6.750;2023-07-22T10:24:28;18.20;99.90
60293;DHT22;52402;52.670;6.750;2023-07-22T10:26:54;18.20;99.90
60293;DHT22;52402;52.670;6.750;2023-07-22T10:29:23;18.20;99.90
60293;DHT22;52402;52.670;6.750;2023-07-22T10:31:53;18.10;99.90
60293;DHT22;52402;52.670;6.750;2023-07-22T10:34:21;18.10;99.90
60293;DHT22;52402;52.670;6.750;2023-07-22T10:36:48;18.00;99.90
60293;DHT22;52402;52.670;6.750;2023-07-22T10:39:28;17.90;99.90
60293;DHT22;52402;52.670;6.750;2023-07-22T10:42:04;17.80;99.90
60293;DHT22;52402;52.670;6.750;2023-07-22T10:44:36;17.60;99.90
60293;DHT22;52402;52.670;6.750;2023-07-22T10:47:03;17.50;99.90
60293;DHT22;52402;52.670;6.750;2023-07-22T10:49:47;17.50;99.90
60293;DHT22;52402;52.670;6.750;2023-07-22T10:52:14;17.40;99.90
60293;DHT22;52402;52.670;6.750;2023-07-22T10:54:51;17.40;99.90
60293;DHT22;52402;52.670;6.750;2023-07-22T10:57:22;17.50;99.90
60293;DHT22;52402;52.670;6.750;2023-07-22T10:59:52;17.60;99.90
60293;DHT22;52402;52.670;6.750;2023-07-22T11:02:30;17.70;99.90
60293;DHT22;52402;52.670;6.750;2023-07-22T11:05:02;17.80;99.90
60293;DHT22;52402;52.670;6.750;2023-07-22T11:07:43;17.80;99.90
60293;DHT22;52402;52.670;6.750;2023-07-22T11:10:17;17.80;99.90
60293;DHT22;52402;52.670;6.750;2023-07-22T11:12:44;17.90;99.90
60293;DHT22;52402;52.670;6.750;2023-07-22T11:15:18;17.80;99.90
60293;DHT22;52402;52.670;6.750;2023-07-22T11:17:44;17.80;99.90
60293;DHT22;52402;52.670;6.750;2023-07-22T11:20:12;17.70;99.90
60293;DHT22;52402;52.670;6.750;2023-07-22T11:22:41;17.70;99.90
60293;DHT22;52402;52.670;6.750;2023-07-22T11:25:09;17.60;99.90
60293;DHT22;52402;52.670;6.750;2023-07-22T11:27:41;17.50;99.90
60293;DHT22;52402;52.670;6.750;2023-07-22T11:30:10;17.40;99.90
60293;DHT22;52402;52.670;6.750;2023-07-22T11:32:42;17.20;99.90
60293;DHT22;52402;52.670;6.750;2023-07-22T11:35:08;17.00;99.90
60293;DHT22;52402;52.670;6.750;2023-07-22T11:37:34;16.80;99.90
60293;DHT22;52402;52.670;6.750;2023-07-22T11:40:01;16.50;99.90
60293;DHT22;52402;52.670;6.750;2023-07-22T11:42:26;16.40;99.90
60293;DHT22;52402;52.670;6.750;2023-07-22T11:44:53;16.20;99.90
60293;DHT22;52402;52.670;6.750;2023-07-22T11:47:18;16.10;99.90
60293;DHT22;52402;52.670;6.750;2023-07-22T11:49:47;15.90;99.90
60293;DHT22;52402;52.670;6.750;2023-07-22T11:52:17;15.80;99.90
60293;DHT22;52402;52.670;6.750;2023-07-22T11:54:45;15.80;99.90
60293;DHT22;52402;52.670;6.750;2023-07-22T11:57:18;15.70;99.90
60293;DHT22;52402;52.670;6.750;2023-07-22T11:59:49;15.80;99.90
60293;DHT22;52402;52.670;6.750;2023-07-22T12:02:19;15.80;99.90
60293;DHT22;52402;52.670;6.750;2023-07-22T12:04:53;16.00;99.90
60293;DHT22;52402;52.670;6.750;2023-07-22T12:07:26;16.00;99.90
60293;DHT22;52402;52.670;6.750;2023-07-22T12:09:55;16.10;99.90
60293;DHT22;52402;52.670;6.750;2023-07-22T12:12:21;16.20;99.90
60293;DHT22;52402;52.670;6.750;2023-07-22T12:14:47;16.10;99.90
60293;DHT22;52402;52.670;6.750;2023-07-22T12:17:13;16.20;99.90
60293;DHT22;52402;52.670;6.750;2023-07-22T12:19:50;16.20;99.90
60293;DHT22;52402;52.670;6.750;2023-07-22T12:22:16;16.20;99.90
60293;DHT22;52402;52.670;6.750;2023-07-22T12:24:42;16.20;99.90
60293;DHT22;52402;52.670;6.750;2023-07-22T12:27:10;16.20;99.90
60293;DHT22;52402;52.670;6.750;2023-07-22T12:29:36;16.10;99.90
60293;DHT22;52402;52.670;6.750;2023-07-22T12:32:02;16.10;99.90
60293;DHT22;52402;52.670;6.750;2023-07-22T12:34:28;16.10;99.90
60293;DHT22;52402;52.670;6.750;2023-07-22T12:36:53;16.10;99.90
60293;DHT22;52402;52.670;6.750;2023-07-22T12:39:19;16.10;99.90
60293;DHT22;52402;52.670;6.750;2023-07-22T12:41:44;16.10;99.90
60293;DHT22;52402;52.670;6.750;2023-07-22T12:44:10;16.10;99.90
60293;DHT22;52402;52.670;6.750;2023-07-22T12:46:37;16.20;99.90
60293;DHT22;52402;52.670;6.750;2023-07-22T12:49:03;16.10;99.90
60293;DHT22;52402;52.670;6.750;2023-07-22T12:51:31;16.10;99.90
60293;DHT22;52402;52.670;6.750;2023-07-22T12:53:57;15.90;99.90
60293;DHT22;52402;52.670;6.750;2023-07-22T12:56:23;15.90;99.90
60293;DHT22;52402;52.670;6.750;2023-07-22T12:58:48;15.90;99.90
60293;DHT22;52402;52.670;6.750;2023-07-22T13:01:14;15.90;99.90
60293;DHT22;52402;52.670;6.750;2023-07-22T13:03:39;15.80;99.90
60293;DHT22;52402;52.670;6.750;2023-07-22T13:06:06;15.70;99.90
60293;DHT22;52402;52.670;6.750;2023-07-22T13:08:32;15.60;99.90
60293;DHT22;52402;52.670;6.750;2023-07-22T13:11:00;15.50;99.90
60293;DHT22;52402;52.670;6.750;2023-07-22T13:13:26;15.50;99.90
60293;DHT22;52402;52.670;6.750;2023-07-22T13:15:51;15.50;99.90
60293;DHT22;52402;52.670;6.750;2023-07-22T13:18:17;15.50;99.90
60293;DHT22;52402;52.670;6.750;2023-07-22T13:20:43;15.40;99.90
60293;DHT22;52402;52.670;6.750;2023-07-22T13:23:09;15.30;99.90
60293;DHT22;52402;52.670;6.750;2023-07-22T13:25:37;15.30;99.90
60293;DHT22;52402;52.670;6.750;2023-07-22T13:28:03;15.30;99.90
60293;DHT22;52402;52.670;6.750;2023-07-22T13:30:29;15.30;99.90
60293;DHT22;52402;52.670;6.750;2023-07-22T13:32:54;15.30;99.90
60293;DHT22;52402;52.670;6.750;2023-07-22T13:35:21;15.40;99.90
60293;DHT22;52402;52.670;6.750;2023-07-22T13:37:47;15.50;99.90
60293;DHT22;52402;52.670;6.750;2023-07-22T13:40:13;15.50;99.90
60293;DHT22;52402;52.670;6.750;2023-07-22T13:42:39;15.60;99.90
60293;DHT22;52402;52.670;6.750;2023-07-22T13:45:05;15.70;99.90
60293;DHT22;52402;52.670;6.750;2023-07-22T13:47:31;15.80;99.90
60293;DHT22;52402;52.670;6.750;2023-07-22T13:49:57;15.90;99.90
60293;DHT22;52402;52.670;6.750;2023-07-22T13:52:22;16.00;99.90
60293;DHT22;52402;52.670;6.750;2023-07-22T13:54:49;16.00;99.90
60293;DHT22;52402;52.670;6.750;2023-07-22T13:57:14;16.10;99.90
60293;DHT22;52402;52.670;6.750;2023-07-22T13:59:40;16.10;99.90
60293;DHT22;52402;52.670;6.750;2023-07-22T14:02:06;16.20;99.90
60293;DHT22;52402;52.670;6.750;2023-07-22T14:04:31;16.10;99.90
60293;DHT22;52402;52.670;6.750;2023-07-22T14:06:57;16.10;99.90
60293;DHT22;52402;52.670;6.750;2023-07-22T14:09:22;16.10;99.90
60293;DHT22;52402;52.670;6.750;2023-07-22T14:11:48;16.00;99.90
60293;DHT22;52402;52.670;6.750;2023-07-22T14:14:14;16.00;99.90
60293;DHT22;52402;52.670;6.750;2023-07-22T14:16:39;15.90;99.90
60293;DHT22;52402;52.670;6.750;2023-07-22T14:19:05;15.90;99.90
60293;DHT22;52402;52.670;6.750;2023-07-22T14:21:30;15.90;99.90
60293;DHT22;52402;52.670;6.750;2023-07-22T14:23:56;15.80;99.90
60293;DHT22;52402;52.670;6.750;2023-07-22T14:26:22;15.80;99.90
60293;DHT22;52402;52.670;6.750;2023-07-22T14:28:48;15.80;99.90
60293;DHT22;52402;52.670;6.750;2023-07-22T14:31:13;15.80;99.90
60293;DHT22;52402;52.670;6.750;2023-07-22T14:33:39;15.80;99.90
60293;DHT22;52402;52.670;6.750;2023-07-22T14:36:04;15.80;99.90
60293;DHT22;52402;52.670;6.750;2023-07-22T14:38:30;15.80;99.90
60293;DHT22;52402;52.670;6.750;2023-07-22T14:40:57;15.90;99.90
60293;DHT22;52402;52.670;6.750;2023-07-22T14:43:22;15.90;99.90
60293;DHT22;52402;52.670;6.750;2023-07-22T14:45:49;15.90;99.90
60293;DHT22;52402;52.670;6.750;2023-07-22T14:48:14;15.80;99.90
60293;DHT22;52402;52.670;6.750;2023-07-22T14:50:43;15.80;99.90
60293;DHT22;52402;52.670;6.750;2023-07-22T14:53:08;15.80;99.90
60293;DHT22;52402;52.670;6.750;2023-07-22T14:55:34;15.80;99.90
60293;DHT22;52402;52.670;6.750;2023-07-22T14:58:00;15.80;99.90
60293;DHT22;52402;52.670;6.750;2023-07-22T15:00:25;15.80;99.90
60293;DHT22;52402;52.670;6.750;2023-07-22T15:02:51;15.90;99.90
60293;DHT22;52402;52.670;6.750;2023-07-22T15:05:16;15.90;99.90
60293;DHT22;52402;52.670;6.750;2023-07-22T15:07:42;15.90;99.90
60293;DHT22;52402;52.670;6.750;2023-07-22T15:10:08;16.00;99.90
60293;DHT22;52402;52.670;6.750;2023-07-22T15:12:33;15.90;99.90
60293;DHT22;52402;52.670;6.750;2023-07-22T15:14:59;15.90;99.90
60293;DHT22;52402;52.670;6.750;2023-07-22T15:17:26;15.90;99.90
60293;DHT22;52402;52.670;6.750;2023-07-22T15:19:52;15.90;99.90
60293;DHT22;52402;52.670;6.750;2023-07-22T15:22:18;15.90;99.90
60293;DHT22;52402;52.670;6.750;2023-07-22T15:24:43;15.90;99.90
60293;DHT22;52402;52.670;6.750;2023-07-22T15:27:09;15.80;99.90
60293;DHT22;52402;52.670;6.750;2023-07-22T15:29:34;15.80;99.90
60293;DHT22;52402;52.670;6.750;2023-07-22T15:32:00;15.90;99.90
60293;DHT22;52402;52.670;6.750;2023-07-22T15:34:29;15.90;99.90
60293;DHT22;52402;52.670;6.750;2023-07-22T15:36:55;15.90;99.90
60293;DHT22;52402;52.670;6.750;2023-07-22T15:39:21;15.90;99.90
60293;DHT22;52402;52.670;6.750;2023-07-22T15:41:46;15.90;99.90